Terminal Aerodrome Forecast
Issued by NWS

Home | Current Version | Previous Version | Text Only | Print | Product List | Glossary On
Versions: 1 2 3 4 5 6 7 8 9 10 11 12 13 14 15 16 17 18 19 20 21 22 23 24 25 26 27 28 29 30 31 32 33 34 35 36 37
000
FTUS44 KHGX 300521
TAFSGR
TAF
KSGR 300521Z 3006/3106 17010KT P6SM SKC
      TEMPO 3007/3009 BKN018
     FM300900 18004KT P6SM BKN015
     FM301600 19007KT P6SM SCT025
     FM301800 18010KT P6SM SCT035 SCT250=

USA.gov is the U.S. government's official web portal to all federal, state and local government web resources and services.